createdAt,value
2023-03-24T00:04:13.219Z,11.6
2023-03-24T00:14:23.059Z,11.5
2023-03-24T00:19:29.458Z,11.5
2023-03-24T00:24:39.808Z,11.4
2023-03-24T00:34:28.520Z,11.4
2023-03-24T00:39:34.928Z,11.4
2023-03-24T00:44:41.296Z,11.4
2023-03-24T00:49:47.679Z,11.4
2023-03-24T00:54:54.089Z,11.4
2023-03-24T01:00:00.437Z,11.4
2023-03-24T01:05:30.857Z,11.4
2023-03-24T01:10:13.427Z,11.4
2023-03-24T01:15:19.760Z,11.4
2023-03-24T01:20:46.375Z,11.4
2023-03-24T01:25:56.655Z,11.4
2023-03-24T01:30:38.902Z,11.4
2023-03-24T01:41:15.709Z,11.4
2023-03-24T01:45:58.095Z,11.4
2023-03-24T01:56:10.787Z,11.4
2023-03-24T02:01:17.233Z,11.4
2023-03-24T02:06:47.598Z,11.5
2023-03-24T02:11:29.933Z,11.5
2023-03-24T02:16:56.426Z,11.5
2023-03-24T02:21:42.724Z,11.5
2023-03-24T02:26:49.115Z,11.6
2023-03-24T02:31:55.574Z,11.6
2023-03-24T02:42:08.290Z,11.6
2023-03-24T02:47:14.699Z,11.6
2023-03-24T02:52:45.155Z,11.6
2023-03-24T02:57:27.576Z,11.6
2023-03-24T03:02:33.987Z,11.6
2023-03-24T03:08:04.559Z,11.7
2023-03-24T03:13:10.776Z,11.7
2023-03-24T03:17:53.333Z,11.7
2023-03-24T03:23:43.632Z,11.7
2023-03-24T03:27:55.898Z,11.7
2023-03-24T03:33:12.283Z,11.7
2023-03-24T03:38:18.674Z,11.7
2023-03-24T03:43:25.277Z,11.7
2023-03-24T03:48:31.707Z,11.7
2023-03-24T03:53:38.020Z,11.8
2023-03-24T03:58:44.435Z,11.8
2023-03-24T04:05:06.420Z,11.8
2023-03-24T04:09:17.224Z,11.8
2023-03-24T04:14:23.656Z,11.8
2023-03-24T04:19:34.117Z,11.8
2023-03-24T04:24:16.443Z,11.8
2023-03-24T04:31:01.051Z,11.8
2023-03-24T04:34:53.239Z,11.9
2023-03-24T04:40:47.863Z,11.9
2023-03-24T04:44:42.017Z,11.9
2023-03-24T04:49:48.471Z,11.9
2023-03-24T04:56:31.071Z,11.9
2023-03-24T05:00:01.223Z,11.9
2023-03-24T05:05:07.704Z,11.8
2023-03-24T05:15:44.657Z,11.8
2023-03-24T05:20:47.044Z,11.7
2023-03-24T05:25:33.338Z,11.7
2023-03-24T05:30:39.760Z,11.6
2023-03-24T05:45:59.078Z,11.4
2023-03-24T05:51:05.475Z,11.3
2023-03-24T05:56:31.962Z,11.2
2023-03-24T06:01:18.249Z,11.1
2023-03-24T06:17:01.558Z,11.0
2023-03-24T06:21:44.112Z,10.9
2023-03-24T06:27:10.649Z,10.9
2023-03-24T06:32:16.993Z,10.8
2023-03-24T06:42:09.725Z,10.7
2023-03-24T06:52:22.530Z,10.7
2023-03-24T06:57:28.898Z,10.7
2023-03-24T07:02:35.534Z,10.7
2023-03-24T07:12:47.054Z,10.7
2023-03-24T07:17:54.605Z,10.7
2023-03-24T07:23:01.021Z,10.7
2023-03-24T07:28:07.516Z,10.7
2023-03-24T07:33:04.002Z,10.7
2023-03-24T07:38:19.307Z,10.7
2023-03-24T07:43:26.677Z,10.8
2023-03-24T07:48:33.073Z,10.8
2023-03-24T07:53:39.438Z,10.8
2023-03-24T07:58:45.836Z,10.9
2023-03-24T08:03:55.934Z,10.9
2023-03-24T08:09:02.136Z,11.0
2023-03-24T08:14:08.517Z,11.0
2023-03-24T08:20:00.012Z,11.1
2023-03-24T08:24:11.289Z,11.1
2023-03-24T08:34:34.094Z,11.3
2023-03-24T08:39:40.594Z,11.4
2023-03-24T08:44:46.921Z,11.6
2023-03-24T08:49:53.306Z,11.7
2023-03-24T08:54:59.942Z,11.9
2023-03-24T09:00:06.458Z,12.1
2023-03-24T09:05:12.835Z,12.2
2023-03-24T09:10:19.269Z,12.4
2023-03-24T09:15:25.616Z,12.6
2023-03-24T09:20:52.281Z,12.9
2023-03-24T09:25:38.408Z,13.2
2023-03-24T09:30:44.780Z,13.6
2023-03-24T09:35:51.415Z,14.1
2023-03-24T09:40:57.951Z,14.4
2023-03-24T09:46:04.328Z,14.7
2023-03-24T09:51:12.251Z,14.9
2023-03-24T09:56:18.749Z,14.9
2023-03-24T10:01:25.284Z,14.9
2023-03-24T10:06:31.592Z,14.9
2023-03-24T10:11:38.002Z,15.0
2023-03-24T10:16:44.400Z,15.2
2023-03-24T10:21:50.778Z,15.3
2023-03-24T10:26:57.187Z,15.4
2023-03-24T10:32:03.699Z,15.3
2023-03-24T10:37:10.010Z,15.3
2023-03-24T10:42:16.431Z,15.2
2023-03-24T10:52:53.326Z,15.1
2023-03-24T10:57:35.697Z,14.9
2023-03-24T11:02:42.144Z,14.9
2023-03-24T11:07:48.542Z,14.8
2023-03-24T11:12:55.151Z,14.7
2023-03-24T11:18:29.366Z,14.6
2023-03-24T11:23:21.729Z,14.5
2023-03-24T11:28:14.218Z,14.5
2023-03-24T11:33:20.656Z,14.7
2023-03-24T11:38:47.153Z,15.2
2023-03-24T11:43:33.531Z,15.7
2023-03-24T11:48:41.622Z,16.1
2023-03-24T11:53:46.483Z,16.3
2023-03-24T11:58:52.879Z,16.3
2023-03-24T12:03:59.511Z,16.5
2023-03-24T12:09:05.869Z,16.7
2023-03-24T12:14:12.281Z,16.9
2023-03-24T12:19:18.643Z,17.0
2023-03-24T12:29:55.603Z,16.9
2023-03-24T12:34:38.008Z,17.0
2023-03-24T12:39:44.515Z,17.1
2023-03-24T12:44:50.880Z,17.0
2023-03-24T12:50:11.307Z,17.0
2023-03-24T12:55:04.236Z,16.9
2023-03-24T13:00:30.635Z,16.9
2023-03-24T13:05:17.100Z,16.9
2023-03-24T13:10:13.399Z,15.7
2023-03-24T13:15:53.796Z,15.6
2023-03-24T13:20:36.207Z,16.0
2023-03-24T13:25:42.510Z,16.1
2023-03-24T13:30:48.898Z,16.0
2023-03-24T13:36:19.371Z,15.9
2023-03-24T13:41:01.717Z,15.7
2023-03-24T13:46:52.160Z,15.4
2023-03-24T13:51:53.587Z,15.1
2023-03-24T13:56:39.936Z,14.8
2023-03-24T14:06:33.758Z,14.2
2023-03-24T14:11:40.177Z,14.0
2023-03-24T14:16:46.537Z,13.8
2023-03-24T14:21:52.944Z,13.6
2023-03-24T14:26:59.332Z,13.5
2023-03-24T14:37:12.322Z,13.5
2023-03-24T14:42:19.694Z,13.6
2023-03-24T14:47:27.729Z,13.7
2023-03-24T14:52:32.431Z,13.8
2023-03-24T14:59:15.148Z,13.9
2023-03-24T15:02:45.546Z,13.8
2023-03-24T15:07:51.935Z,13.8
2023-03-24T15:13:18.901Z,13.8
2023-03-24T15:18:05.349Z,13.7
2023-03-24T15:23:31.838Z,13.5
2023-03-24T15:28:18.282Z,13.4
2023-03-24T15:33:24.795Z,13.2
2023-03-24T15:39:39.307Z,13.1
2023-03-24T15:43:37.622Z,12.9
2023-03-24T15:58:56.798Z,12.5
2023-03-24T16:04:03.291Z,12.4
2023-03-24T16:09:33.638Z,12.4
2023-03-24T16:14:56.092Z,12.3
2023-03-24T16:19:22.385Z,12.2
2023-03-24T16:24:56.860Z,12.2
2023-03-24T16:29:35.144Z,12.2
2023-03-24T16:34:41.489Z,12.2
2023-03-24T16:39:47.866Z,12.2
2023-03-24T16:45:18.319Z,12.1
2023-03-24T16:55:07.140Z,12.1
2023-03-24T17:00:13.525Z,12.0
2023-03-24T17:05:19.924Z,12.0
2023-03-24T17:11:10.352Z,11.9
2023-03-24T17:20:39.028Z,11.8
2023-03-24T17:25:45.392Z,11.7
2023-03-24T17:32:11.919Z,11.6
2023-03-24T17:35:58.215Z,11.5
2023-03-24T17:41:04.554Z,11.4
2023-03-24T17:46:11.109Z,11.4
2023-03-24T17:51:17.506Z,11.3
2023-03-24T17:56:23.866Z,11.2
2023-03-24T18:01:58.313Z,11.1
2023-03-24T18:06:36.717Z,11.0
2023-03-24T18:12:18.651Z,10.9
2023-03-24T18:16:51.191Z,10.8
2023-03-24T18:22:41.656Z,10.7
2023-03-24T18:27:03.953Z,10.6
2023-03-24T18:32:10.367Z,10.4
2023-03-24T18:37:16.905Z,10.3
2023-03-24T18:42:26.599Z,10.2
2023-03-24T18:53:23.397Z,10.0
2023-03-24T18:57:45.749Z,9.9
2023-03-24T19:09:04.865Z,9.7
2023-03-24T19:19:25.629Z,9.4
2023-03-24T19:24:09.015Z,9.4
2023-03-24T19:29:15.400Z,9.5
2023-03-24T19:34:21.771Z,9.4
2023-03-24T19:39:28.847Z,9.4
2023-03-24T19:44:35.180Z,9.3
2023-03-24T19:50:20.783Z,9.3
2023-03-24T19:55:08.269Z,9.3
2023-03-24T20:00:19.661Z,9.3
2023-03-24T20:05:02.104Z,9.3
2023-03-24T20:10:08.477Z,9.3
2023-03-24T20:15:15.035Z,9.4
2023-03-24T20:21:16.786Z,9.4
2023-03-24T20:26:11.143Z,9.4
2023-03-24T20:30:54.532Z,9.4
2023-03-24T20:36:05.009Z,9.3
2023-03-24T20:40:48.733Z,9.3
2023-03-24T20:46:13.779Z,9.3
2023-03-24T20:52:10.199Z,9.3
2023-03-24T20:56:30.514Z,9.3
2023-03-24T21:01:12.827Z,9.2
2023-03-24T21:06:39.323Z,9.2
2023-03-24T21:11:25.677Z,9.2
2023-03-24T21:17:23.315Z,9.2
2023-03-24T21:21:43.163Z,9.2
2023-03-24T21:26:49.724Z,9.1
2023-03-24T21:32:20.331Z,9.0
2023-03-24T21:37:02.676Z,9.0
2023-03-24T21:42:09.198Z,8.9
2023-03-24T21:47:15.684Z,8.9
2023-03-24T21:53:06.212Z,8.8
2023-03-24T21:57:27.441Z,8.8
2023-03-24T22:02:38.010Z,8.8
2023-03-24T22:13:28.439Z,8.7
2023-03-24T22:18:00.759Z,8.6
2023-03-24T22:23:27.110Z,8.6
2023-03-24T22:28:13.430Z,8.6
2023-03-24T22:33:19.910Z,8.6
2023-03-24T22:38:26.326Z,8.6
2023-03-24T22:43:36.727Z,8.6
2023-03-24T22:48:39.218Z,8.6
2023-03-24T22:53:45.494Z,8.5
2023-03-24T22:59:11.928Z,8.5
2023-03-24T23:10:14.774Z,8.5
2023-03-24T23:14:35.087Z,8.4
2023-03-24T23:19:17.585Z,8.4
2023-03-24T23:25:20.159Z,8.4
2023-03-24T23:29:30.565Z,8.4
2023-03-24T23:35:01.025Z,8.4
2023-03-24T23:40:55.476Z,8.5
2023-03-24T23:45:09.741Z,8.5
2023-03-24T23:50:52.225Z,8.5
2023-03-24T23:56:44.722Z,8.5
